Time;durP1;ratioP1;P1;durP2;ratioP2;P2;SDS_P1;SDS_P2;PMS_P1;PMS_P2;Temp;Humidity;BMP_temperature;BMP_pressure;BME280_temperature;BME280_humidity;BME280_pressure;Samples;Min_cycle;Max_cycle;Signal;HPM_P1;HPM_P2
2022/03/31 00:01:18;;;;;;;6.93;3.60;;;;;;;-2.35;47.93;98734.63;5038292;28;20166;-69
2022/03/31 00:03:43;;;;;;;6.97;4.28;;;;;;;-2.38;48.46;98740.84;5051910;28;20561;-67
2022/03/31 00:06:08;;;;;;;4.57;3.08;;;;;;;-2.33;48.29;98740.66;5030077;28;20085;-69
2022/03/31 00:08:33;;;;;;;9.43;3.42;;;;;;;-2.38;48.59;98745.19;5046902;28;20062;-70
2022/03/31 00:10:57;;;;;;;5.03;3.33;;;;;;;-2.34;48.53;98744.16;5050523;28;20508;-71
2022/03/31 00:13:25;;;;;;;4.13;2.90;;;;;;;-2.35;49.03;98742.47;5056754;28;20044;-69
2022/03/31 00:15:52;;;;;;;7.55;3.63;;;;;;;-2.37;48.52;98742.50;5031675;28;20048;-71
2022/03/31 00:18:17;;;;;;;6.93;3.85;;;;;;;-2.35;48.41;98740.72;5014551;28;20636;-69
2022/03/31 00:20:43;;;;;;;8.45;3.25;;;;;;;-2.37;47.94;98739.91;5032161;28;20147;-69
2022/03/31 00:23:07;;;;;;;10.82;4.20;;;;;;;-2.34;47.71;98742.41;5048174;28;20064;-70
2022/03/31 00:25:33;;;;;;;8.52;3.72;;;;;;;-2.38;48.57;98743.44;5044253;28;20083;-68
2022/03/31 00:27:58;;;;;;;7.88;3.50;;;;;;;-2.39;48.38;98748.72;5026349;28;20036;-68
2022/03/31 00:30:24;;;;;;;5.88;3.60;;;;;;;-2.44;48.76;98759.28;5045123;28;20051;-68
2022/03/31 00:32:48;;;;;;;9.10;3.65;;;;;;;-2.51;49.08;98755.19;5045495;28;20044;-69
2022/03/31 00:35:13;;;;;;;7.00;3.42;;;;;;;-2.45;49.12;98756.72;5045520;28;20089;-69
2022/03/31 00:37:42;;;;;;;5.15;3.35;;;;;;;-2.46;49.01;98762.84;5028405;28;20040;-73
2022/03/31 00:40:09;;;;;;;6.75;3.17;;;;;;;-2.42;48.62;98759.25;5025270;28;20101;-71
2022/03/31 00:42:47;;;;;;;6.60;4.00;;;;;;;-2.37;48.93;98749.53;5055990;28;20036;-74
2022/03/31 00:45:16;;;;;;;6.93;3.92;;;;;;;-2.49;49.08;98748.19;5045942;28;20498;-71
2022/03/31 00:47:41;;;;;;;7.85;4.00;;;;;;;-2.48;49.09;98755.06;5056482;28;20075;-69
2022/03/31 00:50:07;;;;;;;10.10;3.83;;;;;;;-2.50;49.21;98754.28;5045405;28;20117;-70
2022/03/31 00:52:31;;;;;;;9.40;4.18;;;;;;;-2.48;49.03;98749.84;5056598;28;20103;-69
2022/03/31 00:54:56;;;;;;;8.55;3.75;;;;;;;-2.44;49.15;98745.38;5056609;28;20135;-70
2022/03/31 00:57:21;;;;;;;6.00;4.00;;;;;;;-2.49;48.90;98757.75;5056483;28;20131;-72
2022/03/31 00:59:46;;;;;;;4.18;3.15;;;;;;;-2.49;48.54;98758.63;5056405;28;20084;-69
2022/03/31 01:02:12;;;;;;;3.58;2.80;;;;;;;-2.60;49.32;98766.78;5047760;28;20044;-73
2022/03/31 01:04:39;;;;;;;7.25;4.25;;;;;;;-2.63;49.31;98764.28;5056464;28;20047;-73
2022/03/31 01:07:04;;;;;;;10.30;3.40;;;;;;;-2.68;49.48;98768.78;5041690;28;20055;-69
2022/03/31 01:09:32;;;;;;;5.10;3.33;;;;;;;-2.73;49.93;98777.66;5054911;28;20040;-71
2022/03/31 01:11:58;;;;;;;6.00;3.22;;;;;;;-2.76;49.92;98775.16;5054983;28;20080;-68
2022/03/31 01:14:22;;;;;;;6.97;3.88;;;;;;;-2.85;50.91;98772.84;5039200;28;20051;-70
2022/03/31 01:16:47;;;;;;;6.07;3.88;;;;;;;-2.82;50.65;98768.34;5055453;28;20048;-70
2022/03/31 01:19:12;;;;;;;7.13;3.60;;;;;;;-2.81;50.87;98772.66;5071459;28;20047;-69
2022/03/31 01:21:39;;;;;;;5.93;3.17;;;;;;;-2.81;51.06;98770.06;5034487;28;20055;-70
2022/03/31 01:24:08;;;;;;;5.07;3.40;;;;;;;-2.83;51.46;98765.81;5055704;28;20040;-68
2022/03/31 01:26:40;;;;;;;9.40;3.90;;;;;;;-2.82;51.55;98772.75;5055682;28;20044;-69
2022/03/31 01:29:06;;;;;;;4.00;3.10;;;;;;;-2.83;50.72;98773.66;5054510;28;20040;-70
2022/03/31 01:31:31;;;;;;;7.15;3.25;;;;;;;-2.84;51.27;98778.00;5034891;28;20044;-72
2022/03/31 01:33:57;;;;;;;9.63;3.85;;;;;;;-2.86;51.46;98771.97;5054704;28;20047;-69
2022/03/31 01:36:22;;;;;;;5.68;3.22;;;;;;;-2.81;51.44;98782.25;5037242;28;20047;-70
2022/03/31 01:38:47;;;;;;;7.30;4.05;;;;;;;-2.83;51.47;98773.66;5056802;28;20131;-71
2022/03/31 01:41:12;;;;;;;5.28;3.45;;;;;;;-2.80;50.69;98774.38;5055526;28;20056;-72
2022/03/31 01:43:36;;;;;;;6.68;3.38;;;;;;;-2.81;51.52;98775.28;5055973;28;20077;-71
2022/03/31 01:46:01;;;;;;;9.93;3.47;;;;;;;-2.82;51.68;98770.13;5055876;28;20044;-73
2022/03/31 01:48:26;;;;;;;9.77;3.88;;;;;;;-2.84;52.04;98780.63;5056610;28;20067;-71
2022/03/31 01:50:51;;;;;;;7.80;3.30;;;;;;;-2.82;51.99;98784.00;5040382;28;20510;-71
2022/03/31 01:53:16;;;;;;;5.63;3.30;;;;;;;-2.85;51.49;98781.50;5058685;28;20086;-71
2022/03/31 01:55:41;;;;;;;21.55;4.00;;;;;;;-2.90;51.90;98772.13;5056774;28;20409;-71
2022/03/31 01:58:06;;;;;;;7.28;3.50;;;;;;;-2.91;51.87;98776.47;5057975;28;20135;-73
2022/03/31 02:00:30;;;;;;;5.93;3.75;;;;;;;-2.90;52.40;98782.53;5031787;28;20478;-70
2022/03/31 02:02:55;;;;;;;6.00;3.83;;;;;;;-2.91;51.86;98784.28;5056235;28;20567;-71
2022/03/31 02:05:21;;;;;;;7.63;3.58;;;;;;;-2.92;52.47;98788.66;5056743;28;20040;-72
2022/03/31 02:07:46;;;;;;;7.13;4.00;;;;;;;-2.93;52.51;98791.31;5056277;28;20130;-71
2022/03/31 02:10:12;;;;;;;4.47;3.50;;;;;;;-2.92;52.47;98787.81;5056512;28;20051;-72
2022/03/31 02:12:38;;;;;;;10.88;4.28;;;;;;;-2.94;52.60;98781.81;5055270;28;20048;-72
2022/03/31 02:15:04;;;;;;;5.50;2.65;;;;;;;-2.97;53.43;98789.72;5054852;28;20406;-72
2022/03/31 02:17:30;;;;;;;5.35;3.03;;;;;;;-2.96;53.48;98787.06;5056284;28;20046;-70
2022/03/31 02:19:55;;;;;;;6.55;3.72;;;;;;;-2.87;52.60;98783.31;5061928;28;20044;-72
2022/03/31 02:22:19;;;;;;;3.90;2.90;;;;;;;-2.79;52.06;98791.75;5060544;28;20050;-70
2022/03/31 02:24:44;;;;;;;6.97;3.97;;;;;;;-2.83;52.35;98784.06;5060601;28;20054;-72
2022/03/31 02:27:09;;;;;;;7.93;3.78;;;;;;;-3.02;54.39;98799.41;5060871;28;20438;-72
2022/03/31 02:29:34;;;;;;;4.97;3.50;;;;;;;-3.01;53.18;98796.78;5056044;28;20383;-71
2022/03/31 02:31:59;;;;;;;5.00;2.80;;;;;;;-3.06;53.81;98808.25;5054344;28;20044;-71
2022/03/31 02:34:24;;;;;;;5.78;3.42;;;;;;;-3.04;53.22;98796.00;5056421;28;20606;-72
2022/03/31 02:36:48;;;;;;;6.18;3.95;;;;;;;-3.17;55.21;98805.97;5055490;28;20048;-71
2022/03/31 02:39:13;;;;;;;8.90;4.07;;;;;;;-3.19;55.74;98807.75;5071551;28;20036;-74
2022/03/31 02:41:38;;;;;;;6.07;3.53;;;;;;;-3.28;56.67;98802.81;5037203;28;20048;-73
2022/03/31 02:44:04;;;;;;;10.65;3.63;;;;;;;-3.15;55.04;98808.50;5054309;28;20040;-72
2022/03/31 02:46:29;;;;;;;3.25;2.67;;;;;;;-3.10;55.11;98801.41;5054393;28;20071;-67
2022/03/31 02:48:54;;;;;;;5.00;3.00;;;;;;;-3.10;54.72;98814.44;5032752;28;20067;-67
2022/03/31 02:51:20;;;;;;;5.80;3.30;;;;;;;-3.19;56.10;98812.13;5041271;28;20042;-66
2022/03/31 02:56:29;;;;;;;9.80;3.63;;;;;;;-3.09;54.73;98801.38;5060605;28;20555;-66
2022/03/31 02:58:54;;;;;;;6.65;3.38;;;;;;;-3.16;55.45;98807.66;5050120;28;20052;-66
2022/03/31 03:01:20;;;;;;;7.72;3.53;;;;;;;-3.19;55.57;98810.38;5043051;28;20042;-66
2022/03/31 03:03:44;;;;;;;4.47;2.97;;;;;;;-3.14;54.86;98805.00;5058983;28;20189;-68
2022/03/31 03:06:10;;;;;;;4.30;2.88;;;;;;;-3.11;55.27;98812.72;5052505;28;20036;-65
2022/03/31 03:08:35;;;;;;;7.32;3.20;;;;;;;-3.04;55.06;98816.84;5060702;28;20040;-65
2022/03/31 03:11:00;;;;;;;6.47;3.90;;;;;;;-3.18;56.38;98824.25;5041390;28;20039;-64
2022/03/31 03:13:25;;;;;;;5.65;3.50;;;;;;;-3.22;56.59;98818.25;5056380;28;20092;-64
2022/03/31 03:15:50;;;;;;;6.13;3.50;;;;;;;-3.22;56.52;98825.22;5045529;28;20127;-63
2022/03/31 03:18:18;;;;;;;6.13;3.33;;;;;;;-3.24;57.53;98824.41;5018321;28;20039;-64
2022/03/31 03:20:43;;;;;;;5.05;3.03;;;;;;;-3.18;56.84;98830.31;5049396;28;20081;-64
2022/03/31 03:23:08;;;;;;;5.20;3.15;;;;;;;-3.14;56.81;98823.25;5058960;28;20121;-67
2022/03/31 03:25:33;;;;;;;4.55;2.83;;;;;;;-3.08;56.99;98826.53;5040793;28;20039;-64
2022/03/31 03:27:59;;;;;;;6.25;3.38;;;;;;;-2.92;56.30;98813.88;5039798;28;20098;-70
2022/03/31 03:30:24;;;;;;;5.72;2.80;;;;;;;-2.90;57.14;98808.63;5039948;28;20126;-64
2022/03/31 03:32:49;;;;;;;5.65;3.08;;;;;;;-2.78;56.81;98818.69;5057645;28;20056;-64
2022/03/31 03:35:14;;;;;;;8.57;3.25;;;;;;;-2.64;55.99;98811.28;5040110;28;20085;-64
2022/03/31 03:37:41;;;;;;;6.18;3.20;;;;;;;-2.59;56.54;98810.22;5056852;28;20133;-70
2022/03/31 03:40:10;;;;;;;4.63;2.70;;;;;;;-2.51;56.62;98809.13;5056351;28;20050;-64
2022/03/31 03:42:38;;;;;;;5.90;3.00;;;;;;;-2.42;56.41;98811.44;5056502;28;20058;-66
2022/03/31 03:45:03;;;;;;;8.23;3.28;;;;;;;-2.38;57.64;98819.13;5056934;28;20412;-67
2022/03/31 03:47:28;;;;;;;4.18;2.58;;;;;;;-2.19;56.96;98824.59;5050712;28;20480;-66
2022/03/31 03:49:53;;;;;;;2.72;2.15;;;;;;;-2.00;55.73;98828.28;5045604;28;20470;-66
2022/03/31 03:52:21;;;;;;;7.25;3.47;;;;;;;-1.90;55.46;98832.28;5022922;28;20406;-69
2022/03/31 03:54:49;;;;;;;8.50;3.67;;;;;;;-1.98;56.29;98823.00;5057622;28;20085;-67
2022/03/31 03:57:14;;;;;;;6.38;3.58;;;;;;;-1.84;55.64;98839.06;5022510;28;20157;-65
2022/03/31 03:59:39;;;;;;;5.85;2.83;;;;;;;-1.90;56.32;98836.66;5057686;28;20467;-66
2022/03/31 04:02:04;;;;;;;8.88;3.40;;;;;;;-1.98;56.43;98839.53;5039156;28;20452;-65
2022/03/31 04:04:32;;;;;;;6.10;3.67;;;;;;;-1.92;56.20;98841.94;5038787;28;20060;-65
2022/03/31 04:06:57;;;;;;;8.52;3.00;;;;;;;-1.84;56.23;98839.94;5058958;28;20473;-64
2022/03/31 04:09:23;;;;;;;6.10;3.75;;;;;;;-1.92;56.61;98843.72;5059339;28;20036;-65
2022/03/31 04:11:48;;;;;;;4.93;3.42;;;;;;;-1.87;56.63;98849.63;5038749;28;20139;-64
2022/03/31 04:14:12;;;;;;;7.45;4.97;;;;;;;-1.86;57.36;98843.50;5039009;28;20130;-64
2022/03/31 04:16:37;;;;;;;10.68;3.97;;;;;;;-1.72;57.64;98845.63;5038997;28;20036;-65
2022/03/31 04:19:05;;;;;;;4.88;3.67;;;;;;;-1.56;57.35;98844.19;5056874;28;20044;-66
2022/03/31 04:21:29;;;;;;;5.55;3.58;;;;;;;-1.35;56.43;98847.78;5022064;28;20133;-65
2022/03/31 04:23:54;;;;;;;9.70;4.63;;;;;;;-1.37;56.64;98842.63;5057274;28;20121;-64
2022/03/31 04:26:19;;;;;;;7.25;3.75;;;;;;;-1.26;56.66;98837.88;5039350;28;20120;-65
2022/03/31 04:28:44;;;;;;;5.82;4.03;;;;;;;-1.18;56.65;98843.66;5038668;28;20050;-64
2022/03/31 04:31:08;;;;;;;8.80;4.32;;;;;;;-1.03;56.33;98854.47;5040473;28;20044;-65
2022/03/31 04:33:33;;;;;;;4.93;2.85;;;;;;;-0.87;55.74;98842.50;5040658;28;20040;-66
2022/03/31 04:35:58;;;;;;;5.80;4.22;;;;;;;-0.79;55.75;98837.84;5038683;28;20040;-64
2022/03/31 04:38:23;;;;;;;6.72;3.65;;;;;;;-0.70;56.48;98845.34;5021911;28;20048;-65
2022/03/31 04:40:47;;;;;;;6.30;4.28;;;;;;;-0.54;56.22;98846.41;5056644;28;20056;-64
2022/03/31 04:43:13;;;;;;;6.72;3.95;;;;;;;-0.27;55.13;98854.09;5055281;28;20074;-64
2022/03/31 04:45:38;;;;;;;5.60;3.75;;;;;;;-0.13;55.37;98857.88;5038197;28;20035;-65
2022/03/31 04:48:03;;;;;;;5.90;3.83;;;;;;;0.13;54.66;98851.53;5038460;28;20043;-64
2022/03/31 04:50:28;;;;;;;5.03;3.60;;;;;;;0.39;53.91;98849.59;5038504;28;20522;-66
2022/03/31 04:52:53;;;;;;;7.25;3.90;;;;;;;0.57;53.23;98852.25;5056386;28;20553;-66
2022/03/31 04:55:17;;;;;;;10.43;4.20;;;;;;;0.48;53.26;98851.81;5057093;28;20146;-67
2022/03/31 04:57:42;;;;;;;8.20;4.85;;;;;;;0.34;53.67;98848.00;5056697;28;20406;-67
2022/03/31 05:00:07;;;;;;;6.50;3.65;;;;;;;0.26;53.44;98844.88;5038624;28;20081;-66
2022/03/31 05:02:32;;;;;;;6.10;3.97;;;;;;;0.15;54.19;98844.47;5038268;28;20052;-65
2022/03/31 05:04:57;;;;;;;6.20;3.65;;;;;;;0.27;54.38;98849.19;5037790;28;20028;-66
2022/03/31 05:07:22;;;;;;;7.22;3.88;;;;;;;0.19;54.69;98864.41;5056843;28;20131;-66
2022/03/31 05:09:47;;;;;;;5.93;4.00;;;;;;;0.19;55.68;98869.66;5038340;28;20036;-65
2022/03/31 05:12:14;;;;;;;6.13;3.40;;;;;;;0.40;55.03;98867.88;5021962;28;20059;-67
2022/03/31 05:14:40;;;;;;;10.32;3.45;;;;;;;0.56;54.46;98868.94;5036854;28;20039;-66
2022/03/31 05:17:05;;;;;;;10.23;4.28;;;;;;;0.55;55.69;98866.38;5056034;28;20048;-66
2022/03/31 05:19:30;;;;;;;5.85;4.05;;;;;;;0.64;55.14;98863.34;5056002;28;20040;-65
2022/03/31 05:21:55;;;;;;;3.85;3.10;;;;;;;0.81;54.89;98858.19;5055797;28;20050;-74
2022/03/31 05:24:20;;;;;;;7.13;3.72;;;;;;;0.96;54.48;98864.53;5037897;28;20623;-73
2022/03/31 05:26:49;;;;;;;5.75;3.60;;;;;;;1.10;54.09;98870.03;5055004;28;20050;-74
2022/03/31 05:29:13;;;;;;;7.65;3.92;;;;;;;1.18;53.38;98856.53;5037920;28;20143;-73
2022/03/31 05:31:38;;;;;;;6.43;3.78;;;;;;;1.14;53.82;98868.09;5037465;28;20094;-74
2022/03/31 05:34:03;;;;;;;9.52;4.32;;;;;;;1.19;54.10;98858.25;5020414;28;20071;-73
2022/03/31 05:36:28;;;;;;;5.65;3.60;;;;;;;1.25;54.13;98852.69;5037184;28;20514;-75
2022/03/31 05:38:54;;;;;;;6.75;3.53;;;;;;;1.39;53.98;98868.66;5054390;28;20044;-73
2022/03/31 05:41:19;;;;;;;11.85;3.88;;;;;;;1.55;53.64;98866.19;5055346;28;20067;-73
2022/03/31 05:43:44;;;;;;;7.90;4.00;;;;;;;1.78;53.03;98866.78;5037117;28;20036;-74
2022/03/31 05:46:09;;;;;;;12.48;3.13;;;;;;;2.07;52.83;98875.00;5036663;28;20055;-73
2022/03/31 05:48:34;;;;;;;9.43;4.07;;;;;;;2.34;52.31;98872.81;5053927;28;20036;-74
2022/03/31 05:50:58;;;;;;;4.53;2.85;;;;;;;2.56;51.75;98878.66;5036959;28;20055;-73
2022/03/31 05:53:23;;;;;;;8.60;3.63;;;;;;;2.71;51.16;98877.03;5037628;28;20843;-72
2022/03/31 05:55:48;;;;;;;9.85;3.42;;;;;;;2.80;51.12;98880.03;5055570;28;20052;-73
2022/03/31 05:58:13;;;;;;;8.75;4.25;;;;;;;2.83;50.83;98881.63;5037256;28;20581;-73
2022/03/31 06:00:38;;;;;;;7.03;3.90;;;;;;;2.78;51.01;98881.91;5055227;28;20043;-74
2022/03/31 06:03:03;;;;;;;8.10;3.85;;;;;;;2.72;50.80;98891.88;5020305;28;20036;-73
2022/03/31 06:05:27;;;;;;;6.00;3.65;;;;;;;2.72;51.30;98890.09;5036762;28;20049;-73
2022/03/31 06:07:52;;;;;;;7.88;4.93;;;;;;;2.80;51.10;98881.81;5053650;28;20047;-74
2022/03/31 06:10:18;;;;;;;9.73;4.38;;;;;;;2.80;51.31;98889.72;5036562;28;20044;-74
2022/03/31 06:12:43;;;;;;;7.30;4.25;;;;;;;2.97;51.19;98894.09;5054769;28;20047;-72
2022/03/31 06:15:08;;;;;;;7.88;4.85;;;;;;;3.05;50.38;98898.00;5037175;28;20040;-73
2022/03/31 06:17:34;;;;;;;8.15;4.93;;;;;;;3.21;50.56;98906.81;5022505;28;20040;-73
2022/03/31 06:19:58;;;;;;;16.30;5.20;;;;;;;3.42;49.87;98904.81;5057511;28;20051;-72
2022/03/31 06:22:23;;;;;;;9.23;4.97;;;;;;;3.72;49.73;98904.06;5037004;28;20032;-74
2022/03/31 06:24:48;;;;;;;8.00;5.03;;;;;;;3.96;48.94;98907.94;5019862;28;20043;-73
2022/03/31 06:27:13;;;;;;;6.28;4.35;;;;;;;4.26;48.06;98902.72;5036444;28;20040;-74
2022/03/31 06:29:38;;;;;;;6.20;4.25;;;;;;;4.32;48.00;98905.00;5036293;28;20444;-71
2022/03/31 06:32:04;;;;;;;8.18;4.55;;;;;;;4.16;47.39;98904.22;5054665;28;20048;-71
2022/03/31 06:34:29;;;;;;;7.00;4.45;;;;;;;3.74;48.68;98903.03;5036494;28;20078;-71
2022/03/31 06:36:54;;;;;;;7.18;3.95;;;;;;;3.54;48.96;98903.28;5036607;28;20059;-72
2022/03/31 06:39:19;;;;;;;7.43;4.43;;;;;;;3.77;48.81;98909.91;5053278;28;20448;-72
2022/03/31 06:41:43;;;;;;;16.42;4.88;;;;;;;4.27;48.11;98921.13;5036530;28;20056;-72
2022/03/31 06:44:12;;;;;;;7.78;4.45;;;;;;;4.84;46.98;98913.38;5020244;28;20079;-72
2022/03/31 06:46:37;;;;;;;9.90;4.25;;;;;;;5.33;46.11;98895.34;5036263;28;20498;-72
2022/03/31 06:49:02;;;;;;;11.35;4.72;;;;;;;5.80;44.63;98910.03;5054754;28;20125;-73
2022/03/31 06:51:27;;;;;;;11.25;5.57;;;;;;;5.97;43.89;98904.56;5019897;28;20474;-73
2022/03/31 06:53:53;;;;;;;10.73;5.35;;;;;;;6.11;43.99;98904.50;5054426;28;20534;-73
2022/03/31 06:56:18;;;;;;;8.82;5.03;;;;;;;6.01;44.27;98905.19;5053595;28;20130;-72
2022/03/31 06:58:44;;;;;;;11.15;5.97;;;;;;;5.64;43.75;98904.88;5036532;28;20127;-72
2022/03/31 07:01:09;;;;;;;10.68;4.90;;;;;;;5.45;44.87;98905.19;5054502;28;20126;-73
2022/03/31 07:03:36;;;;;;;5.82;3.92;;;;;;;5.17;44.63;98894.63;5054693;28;20040;-71
2022/03/31 07:06:00;;;;;;;11.10;4.95;;;;;;;5.09;45.34;98891.59;5054391;28;20410;-73
2022/03/31 07:08:25;;;;;;;9.13;4.55;;;;;;;5.14;45.52;98888.66;5054389;28;20409;-74
2022/03/31 07:10:50;;;;;;;12.82;5.45;;;;;;;4.94;45.74;98888.09;5019804;28;20040;-72
2022/03/31 07:13:16;;;;;;;6.35;4.03;;;;;;;5.37;45.12;98891.59;5019797;28;20573;-72
2022/03/31 07:15:41;;;;;;;12.70;4.40;;;;;;;5.65;44.65;98897.78;5036336;28;20052;-72
2022/03/31 07:18:07;;;;;;;10.90;5.63;;;;;;;5.87;44.08;98886.72;5036915;28;20512;-73
2022/03/31 07:20:33;;;;;;;13.27;5.28;;;;;;;5.95;43.82;98892.38;5037768;28;20058;-71
2022/03/31 07:22:58;;;;;;;8.88;5.00;;;;;;;5.99;43.79;98893.84;5036694;28;20040;-72
2022/03/31 07:25:23;;;;;;;7.97;4.82;;;;;;;5.84;43.39;98891.25;5036368;28;20043;-75
2022/03/31 07:27:49;;;;;;;9.68;5.07;;;;;;;5.87;43.52;98890.16;5052828;28;20043;-71
2022/03/31 07:30:17;;;;;;;11.80;6.68;;;;;;;5.51;43.54;98895.19;5054103;28;20086;-71
2022/03/31 07:33:11;;;;;;;12.50;5.68;;;;;;;5.60;43.70;98894.59;5019421;28;20055;-69
2022/03/31 07:35:39;;;;;;;11.07;6.30;;;;;;;5.26;44.33;98903.78;4973094;28;20519;-70
2022/03/31 07:38:07;;;;;;;11.27;6.00;;;;;;;5.15;44.18;98907.06;4973971;28;20050;-71
2022/03/31 07:40:32;;;;;;;15.75;6.32;;;;;;;4.91;44.85;98911.19;4960225;28;20062;-71
2022/03/31 07:42:57;;;;;;;15.52;5.72;;;;;;;4.77;45.00;98911.16;4944046;28;20044;-73
2022/03/31 07:45:23;;;;;;;10.80;6.22;;;;;;;4.65;45.02;98918.03;4960073;28;20154;-72
2022/03/31 07:47:49;;;;;;;14.50;5.85;;;;;;;4.50;46.24;98909.22;4960038;28;20598;-73
2022/03/31 07:50:15;;;;;;;16.58;5.97;;;;;;;4.45;46.60;98915.69;4959946;28;20595;-72
2022/03/31 07:52:42;;;;;;;11.82;5.85;;;;;;;4.61;45.74;98895.41;4976135;28;20057;-72
2022/03/31 07:55:09;;;;;;;16.52;6.32;;;;;;;4.84;45.65;98897.53;4959180;28;20165;-73
2022/03/31 07:57:35;;;;;;;17.25;7.75;;;;;;;4.59;46.18;98902.56;4959534;28;20046;-73
2022/03/31 08:00:03;;;;;;;19.17;7.07;;;;;;;4.55;46.05;98907.16;4959628;28;20050;-72
2022/03/31 08:02:42;;;;;;;12.43;6.13;;;;;;;4.71;45.81;98907.13;4975851;28;20084;-70
2022/03/31 08:05:11;;;;;;;16.33;6.43;;;;;;;4.72;46.06;98907.03;4959469;28;20113;-71
2022/03/31 08:07:36;;;;;;;17.42;7.38;;;;;;;4.59;46.14;98906.06;4959412;28;20557;-71
2022/03/31 08:10:05;;;;;;;11.60;4.93;;;;;;;4.82;45.46;98906.47;4975681;28;20037;-70
2022/03/31 08:12:31;;;;;;;22.80;6.00;;;;;;;4.67;45.70;98906.44;5034031;28;20047;-71
2022/03/31 08:14:56;;;;;;;11.85;6.05;;;;;;;4.45;45.95;98910.44;5057184;28;20088;-70
2022/03/31 08:17:21;;;;;;;11.38;5.60;;;;;;;4.24;46.88;98918.66;5057079;28;20052;-70
2022/03/31 08:19:47;;;;;;;13.73;5.20;;;;;;;4.38;46.94;98907.31;5057627;28;20039;-73
2022/03/31 08:22:12;;;;;;;15.18;5.28;;;;;;;4.55;47.04;98908.94;5039352;28;20047;-73
2022/03/31 08:24:36;;;;;;;14.13;5.35;;;;;;;4.77;46.23;98911.16;5040190;28;20044;-72
2022/03/31 08:27:03;;;;;;;18.73;5.80;;;;;;;4.89;46.08;98903.38;5050081;28;20051;-72
2022/03/31 08:29:27;;;;;;;11.05;5.18;;;;;;;5.01;45.29;98899.13;5042709;28;20135;-69
2022/03/31 08:31:53;;;;;;;11.32;4.95;;;;;;;4.85;45.76;98891.31;5039181;28;20177;-70
2022/03/31 08:34:18;;;;;;;9.63;4.72;;;;;;;4.77;46.20;98896.19;5005714;28;20051;-71
2022/03/31 08:36:43;;;;;;;9.98;4.78;;;;;;;4.67;46.29;98887.97;5056838;28;20040;-71
2022/03/31 08:39:08;;;;;;;12.43;5.50;;;;;;;4.62;46.43;98889.19;5055888;28;20048;-71
2022/03/31 08:41:33;;;;;;;9.57;4.82;;;;;;;4.71;46.50;98886.00;5056486;28;20060;-73
2022/03/31 08:43:58;;;;;;;12.88;5.28;;;;;;;4.92;46.83;98881.22;5038672;28;20097;-72
2022/03/31 08:46:34;;;;;;;10.10;5.53;;;;;;;5.37;45.92;98877.53;5021997;28;20043;-72
2022/03/31 08:48:59;;;;;;;7.50;4.38;;;;;;;5.46;44.99;98875.16;5040149;28;20052;-73
2022/03/31 08:51:24;;;;;;;8.13;4.82;;;;;;;5.62;44.64;98864.47;5039745;28;20137;-73
2022/03/31 08:53:49;;;;;;;11.60;4.03;;;;;;;5.95;44.21;98869.41;5056379;28;20047;-73
2022/03/31 08:56:15;;;;;;;4.90;3.47;;;;;;;6.30;43.97;98883.00;5038301;28;20032;-72
2022/03/31 08:58:43;;;;;;;8.80;4.05;;;;;;;6.37;42.83;98873.69;5056703;28;20051;-72
2022/03/31 09:01:08;;;;;;;11.48;4.57;;;;;;;6.32;42.75;98872.31;5056822;28;20040;-73
2022/03/31 09:03:38;;;;;;;8.52;3.50;;;;;;;6.51;42.91;98870.13;5056732;28;20114;-74
2022/03/31 09:06:04;;;;;;;5.72;3.67;;;;;;;6.70;42.66;98859.13;5055251;28;20040;-72
2022/03/31 09:08:28;;;;;;;7.38;3.97;;;;;;;6.84;42.18;98865.16;5038481;28;20052;-73
2022/03/31 09:10:58;;;;;;;7.32;3.83;;;;;;;6.95;42.38;98863.59;5038323;28;20055;-73
2022/03/31 09:13:25;;;;;;;11.25;4.03;;;;;;;6.59;42.02;98851.91;5037975;28;20497;-73
2022/03/31 09:15:58;;;;;;;12.90;5.05;;;;;;;6.44;42.61;98852.91;5056482;28;20436;-72
2022/03/31 09:18:25;;;;;;;5.87;3.70;;;;;;;6.60;42.79;98852.75;5038153;28;20044;-73
2022/03/31 09:20:53;;;;;;;9.27;4.18;;;;;;;6.32;42.83;98853.78;5038867;28;20051;-72
2022/03/31 09:23:23;;;;;;;11.18;4.22;;;;;;;6.21;43.23;98853.63;5034916;28;20089;-74
2022/03/31 09:25:50;;;;;;;11.40;4.10;;;;;;;6.15;43.23;98853.06;5077355;28;20055;-72
2022/03/31 09:28:21;;;;;;;8.50;4.35;;;;;;;6.05;43.47;98845.84;5074107;28;20063;-72
2022/03/31 09:30:52;;;;;;;9.18;4.55;;;;;;;6.08;43.73;98850.94;5052845;28;20040;-72
2022/03/31 09:33:34;;;;;;;10.48;4.93;;;;;;;6.08;43.62;98849.16;5040114;28;20449;-74
2022/03/31 09:36:01;;;;;;;9.98;5.15;;;;;;;5.85;44.05;98852.41;5006722;28;20354;-71
2022/03/31 09:38:26;;;;;;;11.32;4.40;;;;;;;5.66;45.05;98854.53;5039855;28;20071;-71
2022/03/31 09:40:52;;;;;;;11.35;4.85;;;;;;;5.59;44.96;98842.66;5040538;28;20525;-73
2022/03/31 09:43:17;;;;;;;9.45;5.18;;;;;;;5.56;45.18;98846.34;5038756;28;20379;-72
2022/03/31 09:45:42;;;;;;;10.48;5.45;;;;;;;5.32;45.93;98846.09;5038294;28;20040;-73
2022/03/31 09:48:22;;;;;;;8.43;5.65;;;;;;;5.31;46.33;98840.91;5055175;28;20504;-72
2022/03/31 09:50:47;;;;;;;8.80;5.20;;;;;;;4.99;47.60;98841.13;5021151;28;20044;-72
2022/03/31 09:53:13;;;;;;;8.82;5.35;;;;;;;4.45;49.23;98842.66;5037286;28;20043;-71
2022/03/31 09:55:38;;;;;;;12.32;6.10;;;;;;;3.89;51.25;98853.88;5056017;28;20155;-73
2022/03/31 09:58:04;;;;;;;15.57;5.45;;;;;;;3.60;51.97;98850.25;5056627;28;20487;-72
2022/03/31 10:00:30;;;;;;;10.35;5.38;;;;;;;3.60;52.45;98855.53;5055551;28;20054;-72
2022/03/31 10:02:56;;;;;;;11.90;5.78;;;;;;;3.71;52.97;98853.13;5037667;28;20028;-71
2022/03/31 10:05:21;;;;;;;8.30;5.70;;;;;;;3.85;52.93;98852.34;5055989;28;20040;-72
2022/03/31 10:07:48;;;;;;;12.23;5.75;;;;;;;4.09;52.33;98845.66;5055697;28;20042;-71
2022/03/31 10:10:13;;;;;;;12.38;5.88;;;;;;;4.31;51.73;98840.81;5020899;28;20135;-72
2022/03/31 10:12:47;;;;;;;8.80;5.13;;;;;;;4.49;51.60;98836.28;5037428;28;20082;-70
2022/03/31 10:15:21;;;;;;;6.95;4.70;;;;;;;4.59;51.27;98837.41;5056506;28;20471;-70
2022/03/31 10:17:48;;;;;;;13.27;6.00;;;;;;;4.18;52.61;98839.84;5037456;28;20112;-70
2022/03/31 10:20:15;;;;;;;8.65;5.07;;;;;;;4.10;53.17;98838.59;5021040;28;20129;-73
2022/03/31 10:25:36;;;;;;;10.32;5.95;;;;;;;4.23;52.60;98829.03;5059174;28;20055;-74
2022/03/31 10:28:13;;;;;;;11.27;5.82;;;;;;;4.29;52.45;98833.94;5055707;28;20101;-73
2022/03/31 10:30:38;;;;;;;12.70;5.75;;;;;;;4.26;52.34;98827.06;5054733;28;20106;-72
2022/03/31 10:33:05;;;;;;;9.75;5.68;;;;;;;4.28;52.86;98829.63;5056755;28;20040;-73
2022/03/31 10:35:33;;;;;;;11.48;6.28;;;;;;;4.16;52.91;98823.28;5055951;28;20094;-73
2022/03/31 10:38:11;;;;;;;12.88;5.82;;;;;;;4.01;53.73;98827.66;5055842;28;20062;-72
2022/03/31 10:40:38;;;;;;;8.25;4.95;;;;;;;3.99;53.35;98824.25;5055092;28;20125;-72
2022/03/31 10:43:05;;;;;;;10.55;5.50;;;;;;;4.00;53.95;98831.22;5055530;28;20044;-72
2022/03/31 10:45:42;;;;;;;10.40;4.97;;;;;;;3.96;53.51;98826.19;5037330;28;20418;-73
2022/03/31 10:48:20;;;;;;;14.00;5.45;;;;;;;3.70;54.10;98838.25;5036884;28;20043;-72
2022/03/31 10:51:01;;;;;;;10.30;5.43;;;;;;;3.51;55.06;98832.28;5055566;28;20512;-73
2022/03/31 10:53:27;;;;;;;14.40;5.80;;;;;;;3.28;56.32;98829.16;5037661;28;20051;-72
2022/03/31 10:55:55;;;;;;;9.90;6.47;;;;;;;3.14;56.80;98826.44;5055101;28;20106;-71
2022/03/31 10:58:25;;;;;;;10.35;6.07;;;;;;;3.03;57.18;98828.81;5053723;28;20044;-70
2022/03/31 11:00:51;;;;;;;9.95;5.70;;;;;;;3.07;57.50;98818.94;5028189;28;20044;-71
2022/03/31 11:03:16;;;;;;;12.10;6.20;;;;;;;3.08;57.68;98818.00;5053923;28;20050;-70
2022/03/31 11:05:41;;;;;;;14.27;7.03;;;;;;;2.98;57.86;98822.91;5055428;28;20597;-71
2022/03/31 11:08:07;;;;;;;9.00;5.57;;;;;;;2.96;57.69;98816.88;5034017;28;20469;-70
2022/03/31 11:10:43;;;;;;;8.07;4.90;;;;;;;2.87;57.10;98820.88;5055456;28;20521;-71
2022/03/31 11:13:08;;;;;;;8.98;5.25;;;;;;;2.82;57.28;98816.78;5039123;28;20054;-70
2022/03/31 11:15:32;;;;;;;7.75;4.80;;;;;;;2.75;57.19;98818.03;5057783;28;20418;-70
2022/03/31 11:18:00;;;;;;;6.10;3.55;;;;;;;2.71;57.43;98806.81;5058551;28;20066;-71
2022/03/31 11:20:24;;;;;;;5.13;3.53;;;;;;;2.68;57.74;98819.28;5058913;28;20123;-71
2022/03/31 11:22:52;;;;;;;9.05;5.20;;;;;;;2.42;58.30;98810.13;5057790;28;20533;-71
2022/03/31 11:25:17;;;;;;;10.50;5.47;;;;;;;2.19;58.47;98808.66;5060024;28;20071;-72
2022/03/31 11:27:43;;;;;;;8.02;4.90;;;;;;;2.21;59.11;98804.19;5060903;28;20043;-70
2022/03/31 11:30:15;;;;;;;8.43;5.20;;;;;;;2.32;59.24;98809.75;5049758;28;20054;-71
2022/03/31 11:32:41;;;;;;;8.82;5.38;;;;;;;2.32;59.10;98806.28;5051414;28;20051;-67
2022/03/31 11:35:16;;;;;;;7.55;4.57;;;;;;;2.46;58.96;98812.53;5050922;28;20039;-68
2022/03/31 11:37:49;;;;;;;8.70;5.35;;;;;;;2.40;59.08;98802.31;5050617;28;20089;-69